Time;durP1;ratioP1;P1;durP2;ratioP2;P2;SDS_P1;SDS_P2;PMS_P1;PMS_P2;Temp;Humidity;BMP_temperature;BMP_pressure;BME280_temperature;BME280_humidity;BME280_pressure;Samples;Min_cycle;Max_cycle;Signal;HPM_P1;HPM_P2
2022/04/06 00:01:15;;;;;;;5.22;2.55;;;19.10;54.00;;;;;;5019895;28;20106;-72
2022/04/06 00:03:43;;;;;;;7.80;2.80;;;19.10;54.40;;;;;;5019383;28;20577;-72
2022/04/06 00:06:09;;;;;;;5.88;2.70;;;19.00;53.90;;;;;;5019069;28;20421;-72
2022/04/06 00:08:35;;;;;;;6.50;2.90;;;19.00;53.90;;;;;;5017155;28;20040;-72
2022/04/06 00:11:00;;;;;;;6.47;2.90;;;19.00;53.90;;;;;;5018452;28;20034;-72
2022/04/06 00:13:26;;;;;;;5.68;2.65;;;19.00;53.90;;;;;;5021078;28;20072;-72
2022/04/06 00:15:51;;;;;;;6.82;2.70;;;19.00;54.00;;;;;;5019425;28;20456;-72
2022/04/06 00:18:17;;;;;;;6.43;2.80;;;19.00;54.00;;;;;;5016238;28;20502;-71
2022/04/06 00:20:43;;;;;;;6.70;2.75;;;19.00;54.00;;;;;;5019058;28;20066;-72
2022/04/06 00:23:09;;;;;;;5.68;2.70;;;19.00;54.00;;;;;;5016623;28;20042;-72
2022/04/06 00:25:34;;;;;;;7.38;2.85;;;18.90;54.00;;;;;;5015555;28;20044;-71
2022/04/06 00:28:00;;;;;;;6.28;2.95;;;18.90;53.90;;;;;;5014278;28;20037;-72
2022/04/06 00:30:26;;;;;;;5.60;2.80;;;18.90;54.00;;;;;;5019462;28;20037;-72
2022/04/06 00:32:51;;;;;;;6.45;2.75;;;18.90;53.90;;;;;;5017902;28;20170;-72
2022/04/06 00:35:29;;;;;;;7.82;2.72;;;18.90;54.00;;;;;;5018570;28;20037;-72
2022/04/06 00:37:56;;;;;;;7.13;2.70;;;18.90;54.00;;;;;;5017949;28;20036;-72
2022/04/06 00:40:22;;;;;;;5.60;2.55;;;18.90;54.00;;;;;;5015951;28;20038;-71
2022/04/06 00:42:48;;;;;;;5.93;2.45;;;18.90;54.10;;;;;;5021797;28;20046;-72
2022/04/06 00:45:15;;;;;;;4.82;2.60;;;18.90;54.00;;;;;;5025217;28;20037;-72
2022/04/06 00:47:41;;;;;;;7.03;2.50;;;18.80;53.90;;;;;;5015095;28;20042;-72
2022/04/06 00:50:07;;;;;;;4.93;2.40;;;18.90;54.00;;;;;;5018612;28;20616;-72
2022/04/06 00:52:33;;;;;;;4.97;2.47;;;18.80;54.00;;;;;;5017917;28;20259;-72
2022/04/06 00:54:58;;;;;;;6.05;2.83;;;18.80;54.10;;;;;;5020466;28;20033;-71
2022/04/06 00:57:24;;;;;;;5.53;2.42;;;18.80;54.00;;;;;;5018654;28;20402;-71
2022/04/06 00:59:50;;;;;;;7.03;2.55;;;18.80;54.00;;;;;;5032891;28;20025;-72
2022/04/06 01:02:15;;;;;;;4.95;2.40;;;18.80;54.00;;;;;;5018041;28;20026;-71
2022/04/06 01:04:41;;;;;;;4.70;2.47;;;18.70;54.00;;;;;;5017098;28;20402;-72
2022/04/06 01:07:07;;;;;;;5.85;2.58;;;18.80;54.00;;;;;;5016923;28;20033;-72
2022/04/06 01:09:32;;;;;;;5.32;2.40;;;18.80;54.00;;;;;;5017442;28;20557;-71
2022/04/06 01:11:59;;;;;;;6.70;2.45;;;18.70;54.00;;;;;;5013481;28;20494;-71
2022/04/06 01:14:24;;;;;;;6.47;2.60;;;18.70;54.00;;;;;;5022358;28;20119;-71
2022/04/06 01:17:01;;;;;;;8.27;2.25;;;18.70;54.00;;;;;;5017454;28;20063;-71
2022/04/06 01:19:33;;;;;;;5.50;2.60;;;18.70;54.00;;;;;;5021897;28;20252;-72
2022/04/06 01:21:59;;;;;;;6.18;2.70;;;18.70;54.00;;;;;;5018628;28;20255;-72
2022/04/06 01:24:26;;;;;;;7.68;2.58;;;18.70;53.90;;;;;;5014388;28;20059;-72
2022/04/06 01:26:52;;;;;;;5.47;2.45;;;18.70;54.00;;;;;;5016343;28;20099;-72
2022/04/06 01:29:17;;;;;;;5.82;2.45;;;18.60;53.90;;;;;;5015314;28;20042;-72
2022/04/06 01:31:43;;;;;;;6.13;2.50;;;18.60;53.80;;;;;;5018101;28;20036;-72
2022/04/06 01:34:09;;;;;;;7.25;2.40;;;18.60;53.80;;;;;;5021335;28;20022;-72
2022/04/06 01:36:34;;;;;;;6.28;2.25;;;18.60;53.80;;;;;;5014525;28;20038;-71
2022/04/06 01:39:00;;;;;;;5.63;2.55;;;18.60;53.80;;;;;;5016120;28;20340;-71
2022/04/06 01:41:32;;;;;;;6.00;2.55;;;18.60;53.80;;;;;;5021050;28;20112;-71
2022/04/06 01:43:58;;;;;;;5.97;2.72;;;18.60;53.80;;;;;;5020912;28;20530;-71
2022/04/06 01:46:24;;;;;;;7.85;2.60;;;18.60;53.80;;;;;;5018000;28;20038;-71
2022/04/06 01:54:21;;;;;;;7.43;2.47;;;18.60;53.90;;;;;;5014174;28;20142;-71
2022/04/06 01:56:46;;;;;;;5.57;2.40;;;18.60;54.00;;;;;;5020310;28;20100;-71
2022/04/06 01:59:12;;;;;;;7.00;2.30;;;18.60;53.90;;;;;;5017110;28;20489;-71
2022/04/06 02:01:38;;;;;;;7.72;2.40;;;18.50;53.90;;;;;;5017019;28;20533;-70
2022/04/06 02:04:12;;;;;;;5.53;2.30;;;18.50;53.90;;;;;;5021822;28;20052;-70
2022/04/06 02:06:37;;;;;;;5.03;2.20;;;18.50;53.90;;;;;;5014509;28;20678;-71
2022/04/06 02:09:03;;;;;;;6.70;2.30;;;18.50;54.00;;;;;;5020024;28;20022;-71
2022/04/06 02:11:29;;;;;;;5.38;2.20;;;18.50;54.00;;;;;;5014616;28;20030;-71
2022/04/06 02:13:54;;;;;;;6.47;2.42;;;18.50;54.00;;;;;;5017272;28;20030;-71
2022/04/06 02:16:20;;;;;;;5.57;2.28;;;18.50;54.00;;;;;;5020475;28;20091;-70
2022/04/06 02:18:45;;;;;;;5.28;2.30;;;18.50;54.10;;;;;;5019212;28;20853;-71
2022/04/06 02:21:11;;;;;;;5.15;2.17;;;18.50;54.10;;;;;;5019227;28;20054;-71
2022/04/06 02:23:37;;;;;;;6.47;2.20;;;18.50;54.10;;;;;;5023461;28;20026;-70
2022/04/06 02:26:03;;;;;;;4.32;2.05;;;18.50;54.10;;;;;;5018502;28;20044;-71
2022/04/06 02:28:28;;;;;;;6.97;2.30;;;18.40;54.10;;;;;;5021053;28;20631;-71
2022/04/06 02:30:54;;;;;;;6.80;2.40;;;18.40;54.10;;;;;;5017342;28;20694;-70
2022/04/06 02:33:19;;;;;;;4.97;2.15;;;18.40;54.20;;;;;;5014559;28;20033;-71
2022/04/06 02:35:45;;;;;;;6.95;2.40;;;18.40;54.20;;;;;;5023311;28;20052;-70
2022/04/06 02:38:11;;;;;;;4.50;1.90;;;18.40;54.20;;;;;;5018200;28;20498;-71
2022/04/06 02:40:36;;;;;;;5.68;2.13;;;18.40;54.20;;;;;;5015130;28;20119;-71
2022/04/06 02:43:02;;;;;;;4.13;2.00;;;18.40;54.30;;;;;;5015358;28;20643;-70
2022/04/06 02:45:28;;;;;;;5.57;1.88;;;18.40;54.30;;;;;;5020920;28;20025;-71
2022/04/06 02:47:53;;;;;;;3.53;1.80;;;18.40;54.30;;;;;;5016772;28;20048;-70
2022/04/06 02:50:19;;;;;;;5.45;2.10;;;18.40;54.30;;;;;;5014617;28;20030;-70
2022/04/06 02:52:44;;;;;;;3.90;1.98;;;18.30;54.30;;;;;;5020216;28;20022;-71
2022/04/06 02:55:12;;;;;;;4.40;1.80;;;18.40;54.40;;;;;;5014940;28;20083;-71
2022/04/06 02:57:39;;;;;;;5.43;1.90;;;18.30;54.30;;;;;;5017729;28;20061;-70
2022/04/06 03:00:05;;;;;;;4.32;2.10;;;18.30;54.30;;;;;;5018636;28;20037;-70
2022/04/06 03:02:31;;;;;;;3.95;1.90;;;18.30;54.40;;;;;;5021687;28;20049;-70
2022/04/06 03:04:56;;;;;;;4.93;1.95;;;18.30;54.40;;;;;;5019585;28;20072;-70
2022/04/06 03:07:22;;;;;;;4.45;1.90;;;18.30;54.50;;;;;;5016059;28;20026;-71
2022/04/06 03:09:47;;;;;;;4.97;1.90;;;18.30;54.50;;;;;;5016546;28;20030;-71
2022/04/06 03:12:13;;;;;;;3.33;1.63;;;18.30;54.50;;;;;;5011298;28;20025;-71
2022/04/06 03:14:39;;;;;;;4.20;1.80;;;18.30;54.70;;;;;;5019139;28;20474;-70
2022/04/06 03:17:05;;;;;;;3.40;1.70;;;18.30;54.60;;;;;;5021231;28;20022;-71
2022/04/06 03:19:31;;;;;;;3.70;1.70;;;18.30;54.60;;;;;;5018804;28;20030;-71
2022/04/06 03:21:56;;;;;;;4.03;1.77;;;18.30;54.60;;;;;;5020764;28;20539;-70
2022/04/06 03:24:22;;;;;;;4.20;1.70;;;18.20;54.60;;;;;;5022586;28;20108;-71
2022/04/06 03:26:47;;;;;;;4.20;1.80;;;18.20;54.60;;;;;;5024657;28;20124;-71
2022/04/06 03:29:13;;;;;;;2.88;1.60;;;18.20;54.70;;;;;;5016585;28;20034;-71
2022/04/06 03:31:40;;;;;;;3.38;1.63;;;18.20;54.70;;;;;;5017212;28;20422;-70
2022/04/06 03:34:05;;;;;;;5.22;1.88;;;18.20;54.70;;;;;;5019521;28;20454;-71
2022/04/06 03:36:31;;;;;;;2.08;1.55;;;18.20;54.70;;;;;;5015076;28;20029;-70
2022/04/06 03:38:57;;;;;;;4.80;1.77;;;18.20;54.70;;;;;;5015794;28;22215;-70
2022/04/06 03:41:23;;;;;;;4.60;1.75;;;18.20;54.70;;;;;;5023075;28;20035;-70
2022/04/06 03:43:48;;;;;;;4.70;1.60;;;18.20;54.80;;;;;;5020931;28;20426;-70
2022/04/06 03:46:14;;;;;;;3.72;1.77;;;18.20;54.80;;;;;;5021866;28;20528;-68
2022/04/06 03:48:40;;;;;;;4.35;1.60;;;18.20;54.80;;;;;;5016482;28;20021;-71
2022/04/06 03:51:05;;;;;;;3.15;1.52;;;18.20;54.80;;;;;;5017333;28;20022;-71
2022/04/06 03:53:31;;;;;;;3.92;1.77;;;18.20;54.80;;;;;;5016619;28;20034;-71
2022/04/06 03:55:57;;;;;;;3.25;1.60;;;18.10;54.90;;;;;;5017219;28;20945;-71
2022/04/06 03:58:22;;;;;;;4.57;1.92;;;18.10;54.80;;;;;;5021720;28;20037;-71
2022/04/06 04:00:48;;;;;;;3.70;1.70;;;18.10;54.90;;;;;;5015379;28;20037;-71
2022/04/06 04:03:14;;;;;;;4.18;1.80;;;18.10;54.90;;;;;;5018553;28;20041;-71
2022/04/06 04:05:39;;;;;;;3.75;1.40;;;18.10;54.90;;;;;;5021910;28;20045;-70
2022/04/06 04:08:05;;;;;;;3.25;1.60;;;18.10;54.90;;;;;;5017535;28;20084;-71
2022/04/06 04:10:31;;;;;;;2.95;1.60;;;18.10;55.00;;;;;;5022571;28;20029;-70
2022/04/06 04:12:57;;;;;;;3.88;1.55;;;18.00;54.90;;;;;;5022561;28;20482;-70
2022/04/06 04:15:22;;;;;;;3.50;1.60;;;18.10;55.00;;;;;;5021786;28;20116;-71
2022/04/06 04:17:48;;;;;;;3.45;1.35;;;18.10;55.00;;;;;;5018287;28;20036;-71
2022/04/06 04:20:14;;;;;;;5.25;1.50;;;18.00;55.00;;;;;;5019445;28;20568;-67
2022/04/06 04:22:39;;;;;;;2.92;1.50;;;18.00;55.00;;;;;;5019175;28;20425;-71
2022/04/06 04:25:06;;;;;;;3.45;1.45;;;18.00;55.00;;;;;;5020083;28;20037;-70
2022/04/06 04:27:32;;;;;;;3.28;1.48;;;18.00;55.00;;;;;;5020614;28;20109;-71
2022/04/06 04:29:58;;;;;;;3.50;1.63;;;18.00;55.10;;;;;;5020323;28;20105;-71
2022/04/06 04:32:23;;;;;;;2.80;1.40;;;18.00;55.00;;;;;;5013732;28;20037;-71
2022/04/06 04:34:49;;;;;;;4.93;1.70;;;18.00;55.10;;;;;;5011539;28;20026;-71
2022/04/06 04:37:15;;;;;;;4.63;1.70;;;18.00;55.10;;;;;;5016117;28;20030;-70
2022/04/06 04:39:40;;;;;;;3.88;1.65;;;18.00;55.10;;;;;;5020170;28;20111;-71
2022/04/06 04:42:06;;;;;;;3.45;1.55;;;18.00;55.10;;;;;;5018617;28;20111;-71
2022/04/06 04:44:32;;;;;;;3.13;1.42;;;18.00;55.10;;;;;;5016243;28;20140;-70
2022/04/06 04:46:58;;;;;;;4.38;1.45;;;18.00;55.20;;;;;;5019164;28;20200;-71
2022/04/06 04:49:24;;;;;;;2.47;1.33;;;17.90;55.60;;;;;;5014977;28;20029;-71
2022/04/06 04:51:50;;;;;;;3.10;1.40;;;17.90;55.20;;;;;;5022472;28;20037;-70
2022/04/06 04:54:16;;;;;;;4.13;1.40;;;17.90;55.20;;;;;;5014206;28;20022;-70
2022/04/06 04:56:42;;;;;;;4.18;1.58;;;17.90;55.20;;;;;;5015691;28;21316;-71
2022/04/06 04:59:08;;;;;;;3.85;1.40;;;17.90;55.20;;;;;;5016316;28;20084;-71
2022/04/06 05:01:34;;;;;;;3.78;1.50;;;17.90;55.20;;;;;;5018985;28;20026;-71
2022/04/06 05:04:00;;;;;;;3.50;1.52;;;17.90;55.30;;;;;;5020141;28;20040;-71
2022/04/06 05:06:25;;;;;;;3.85;1.38;;;17.90;55.40;;;;;;5016426;28;20041;-71
2022/04/06 05:08:51;;;;;;;4.75;1.50;;;17.90;56.10;;;;;;5015310;28;20099;-71
2022/04/06 05:11:17;;;;;;;2.65;1.30;;;17.90;56.60;;;;;;5019844;28;20025;-68
2022/04/06 05:13:42;;;;;;;3.28;1.50;;;17.90;56.70;;;;;;5014526;28;20028;-68
2022/04/06 05:16:08;;;;;;;3.38;1.30;;;17.90;56.50;;;;;;5019656;28;20084;-68
2022/04/06 05:18:34;;;;;;;4.20;1.55;;;18.00;56.80;;;;;;5017980;28;20606;-69
2022/04/06 05:21:01;;;;;;;3.72;1.63;;;18.00;57.10;;;;;;5014850;28;20032;-69
2022/04/06 05:23:27;;;;;;;6.78;1.58;;;18.00;57.30;;;;;;5022174;28;20033;-69
2022/04/06 05:25:53;;;;;;;4.65;1.40;;;18.00;57.60;;;;;;5012629;28;20490;-69
2022/04/06 05:28:18;;;;;;;6.88;1.48;;;18.00;57.60;;;;;;5018569;28;20056;-68
2022/04/06 05:30:46;;;;;;;5.22;1.63;;;18.00;57.90;;;;;;5014389;28;20030;-71
2022/04/06 05:33:12;;;;;;;7.05;1.70;;;18.00;58.00;;;;;;5021755;28;20033;-70
2022/04/06 05:35:37;;;;;;;5.68;1.50;;;18.00;58.20;;;;;;5022544;28;20383;-70
2022/04/06 05:38:03;;;;;;;6.20;1.60;;;18.00;58.50;;;;;;5024258;28;20508;-71
2022/04/06 05:40:28;;;;;;;6.20;1.80;;;18.00;58.70;;;;;;5020915;28;20516;-70
2022/04/06 05:42:54;;;;;;;8.30;1.80;;;18.00;58.60;;;;;;5023134;28;20509;-69
2022/04/06 05:45:20;;;;;;;6.90;1.83;;;18.00;58.70;;;;;;5018432;28;20407;-71
2022/04/06 05:47:46;;;;;;;7.60;1.90;;;17.90;59.10;;;;;;5015936;28;20502;-70
2022/04/06 05:50:12;;;;;;;5.00;1.50;;;17.90;59.70;;;;;;5016175;28;20061;-70
2022/04/06 05:52:37;;;;;;;5.25;1.60;;;17.90;59.40;;;;;;5015986;28;20087;-70
2022/04/06 05:55:04;;;;;;;6.72;1.90;;;17.90;59.60;;;;;;5018315;28;20022;-70
2022/04/06 05:57:29;;;;;;;8.35;1.60;;;17.90;59.90;;;;;;5016803;28;20033;-70
2022/04/06 05:59:55;;;;;;;7.15;1.80;;;17.90;59.80;;;;;;5019106;28;20029;-70
2022/04/06 06:02:23;;;;;;;8.38;1.70;;;17.80;59.90;;;;;;5016012;28;20477;-70
2022/04/06 06:04:49;;;;;;;6.68;1.55;;;17.80;59.90;;;;;;5013011;28;20054;-70
2022/04/06 06:07:15;;;;;;;4.15;1.30;;;17.80;59.90;;;;;;5013865;28;20114;-70
2022/04/06 06:09:40;;;;;;;7.80;2.00;;;17.80;60.90;;;;;;5014793;28;20501;-70
2022/04/06 06:12:06;;;;;;;7.25;1.70;;;17.80;60.00;;;;;;5019510;28;20025;-70
2022/04/06 06:14:32;;;;;;;6.25;1.85;;;17.80;60.00;;;;;;5018179;28;20072;-70
2022/04/06 06:16:58;;;;;;;4.85;1.60;;;17.80;60.20;;;;;;5022808;28;20497;-70
2022/04/06 06:19:24;;;;;;;5.22;1.58;;;17.80;60.10;;;;;;5015648;28;20033;-70
2022/04/06 06:21:50;;;;;;;6.95;1.63;;;17.80;59.80;;;;;;5015741;28;20037;-70
2022/04/06 06:24:15;;;;;;;5.22;1.40;;;17.70;60.00;;;;;;5019180;28;20053;-70
2022/04/06 06:26:44;;;;;;;4.60;1.60;;;17.70;59.80;;;;;;5024083;28;20041;-70
2022/04/06 06:29:11;;;;;;;5.90;1.50;;;17.70;60.00;;;;;;5028189;28;20108;-70
2022/04/06 06:31:37;;;;;;;8.57;1.45;;;17.70;60.00;;;;;;5020464;28;20044;-69
2022/04/06 06:34:03;;;;;;;6.97;1.73;;;17.70;59.80;;;;;;5014945;28;20025;-70
2022/04/06 06:36:29;;;;;;;5.50;1.50;;;17.70;60.00;;;;;;5012084;28;20116;-70
2022/04/06 06:38:54;;;;;;;6.38;1.95;;;17.70;59.80;;;;;;5024886;28;20113;-68
2022/04/06 06:41:20;;;;;;;6.32;1.80;;;17.70;60.10;;;;;;5021164;28;20025;-70
2022/04/06 06:43:48;;;;;;;5.15;1.50;;;17.70;59.80;;;;;;5021315;28;20037;-70
2022/04/06 06:46:14;;;;;;;4.78;1.50;;;17.60;59.90;;;;;;5018387;28;20033;-70
2022/04/06 06:48:40;;;;;;;6.75;1.70;;;17.60;59.80;;;;;;5011929;28;20029;-70
2022/04/06 06:51:06;;;;;;;5.00;1.33;;;17.60;60.10;;;;;;5017734;28;20028;-70
2022/04/06 06:53:31;;;;;;;5.07;1.40;;;17.60;60.90;;;;;;5014997;28;20030;-70
2022/04/06 06:55:57;;;;;;;8.45;1.85;;;17.60;59.90;;;;;;5017937;28;20030;-70
2022/04/06 06:58:23;;;;;;;5.18;1.67;;;17.60;59.70;;;;;;5020937;28;20044;-70
2022/04/06 07:00:48;;;;;;;4.35;1.50;;;17.60;59.90;;;;;;5019530;28;20026;-70
2022/04/06 07:03:14;;;;;;;5.70;1.60;;;17.60;59.70;;;;;;5022237;28;20029;-70
2022/04/06 07:05:40;;;;;;;7.10;1.70;;;17.50;59.70;;;;;;5022160;28;20034;-70
2022/04/06 07:08:06;;;;;;;5.22;1.33;;;17.60;59.70;;;;;;5025066;28;20037;-70
2022/04/06 07:10:32;;;;;;;4.32;1.40;;;17.50;59.70;;;;;;5019312;28;20511;-70
2022/04/06 07:12:58;;;;;;;3.97;1.35;;;17.60;59.70;;;;;;5018177;28;20033;-70
2022/04/06 07:15:24;;;;;;;4.90;1.30;;;17.60;59.80;;;;;;5015122;28;20071;-71
2022/04/06 07:17:55;;;;;;;6.63;1.40;;;17.50;59.60;;;;;;5027528;28;20025;-70
2022/04/06 07:20:26;;;;;;;4.32;1.35;;;17.50;59.70;;;;;;5020038;28;20808;-70
2022/04/06 07:22:51;;;;;;;4.30;1.52;;;17.60;59.70;;;;;;5026287;28;20029;-70
2022/04/06 07:25:17;;;;;;;4.53;1.50;;;17.60;59.70;;;;;;5014008;28;20100;-70
2022/04/06 07:27:43;;;;;;;3.72;1.40;;;17.50;59.60;;;;;;5013622;28;20026;-70
2022/04/06 07:30:09;;;;;;;4.18;1.30;;;17.50;59.50;;;;;;5026749;28;20028;-70
2022/04/06 07:32:35;;;;;;;4.13;1.30;;;17.50;59.50;;;;;;5021980;28;20572;-70
2022/04/06 07:35:03;;;;;;;3.50;1.30;;;17.50;59.50;;;;;;5017224;28;20546;-70
2022/04/06 07:37:36;;;;;;;3.60;1.20;;;17.50;59.60;;;;;;5018937;28;20358;-70
2022/04/06 07:40:01;;;;;;;4.00;1.30;;;17.50;59.50;;;;;;5017059;28;20029;-70
2022/04/06 07:42:27;;;;;;;3.72;1.27;;;17.50;59.40;;;;;;5022062;28;20040;-70
2022/04/06 07:44:53;;;;;;;4.10;1.30;;;17.50;59.40;;;;;;5021003;28;20125;-70
2022/04/06 07:47:19;;;;;;;2.95;1.13;;;17.50;59.40;;;;;;5030845;28;20045;-70
2022/04/06 07:49:44;;;;;;;3.33;1.25;;;17.50;59.40;;;;;;5014623;28;20867;-70
2022/04/06 07:52:10;;;;;;;3.72;1.15;;;17.50;59.30;;;;;;5017312;28;20025;-70
2022/04/06 07:54:36;;;;;;;2.75;1.05;;;17.50;59.10;;;;;;5027028;28;20025;-70
2022/04/06 07:57:01;;;;;;;5.18;1.35;;;17.40;59.40;;;;;;5024520;28;20433;-70
2022/04/06 07:59:27;;;;;;;4.43;1.25;;;17.40;59.30;;;;;;5022605;28;20529;-70
2022/04/06 08:01:53;;;;;;;5.22;1.30;;;17.40;59.30;;;;;;5028279;28;20025;-70
2022/04/06 08:04:18;;;;;;;4.30;1.15;;;17.40;59.30;;;;;;5022552;28;20049;-70
2022/04/06 08:06:44;;;;;;;4.88;1.30;;;17.40;59.20;;;;;;5015635;28;20042;-70
2022/04/06 08:09:09;;;;;;;4.80;1.30;;;17.40;59.20;;;;;;5022902;28;20018;-71
2022/04/06 08:11:35;;;;;;;3.22;1.17;;;17.40;59.20;;;;;;5021273;28;20070;-70
2022/04/06 08:14:01;;;;;;;2.67;1.30;;;17.40;59.30;;;;;;5026142;28;20122;-71
2022/04/06 08:16:27;;;;;;;4.57;1.05;;;17.40;59.30;;;;;;5025062;28;20513;-70
2022/04/06 08:18:52;;;;;;;4.65;1.30;;;17.40;59.30;;;;;;5017284;28;20022;-70
2022/04/06 08:21:18;;;;;;;3.53;1.30;;;17.40;59.20;;;;;;5027440;28;20038;-70
2022/04/06 08:23:44;;;;;;;4.10;1.30;;;17.40;59.20;;;;;;5019446;28;20026;-70
2022/04/06 08:26:10;;;;;;;4.00;1.05;;;17.40;59.00;;;;;;5019404;28;20041;-70
2022/04/06 08:28:36;;;;;;;3.65;1.10;;;17.40;59.20;;;;;;5020425;28;20139;-70
2022/04/06 08:31:01;;;;;;;4.15;1.30;;;17.40;59.20;;;;;;5017229;28;20125;-70
2022/04/06 08:33:27;;;;;;;3.53;1.15;;;17.40;59.20;;;;;;5020488;28;20246;-70
2022/04/06 08:35:53;;;;;;;3.83;1.15;;;17.40;59.10;;;;;;5018098;28;20096;-70
2022/04/06 08:38:18;;;;;;;6.55;1.30;;;17.30;59.10;;;;;;5021848;28;20029;-70
2022/04/06 08:40:44;;;;;;;3.15;1.23;;;17.40;59.40;;;;;;5023019;28;20450;-70
2022/04/06 08:43:10;;;;;;;3.58;1.10;;;17.30;59.20;;;;;;5027710;28;20041;-70
2022/04/06 08:45:37;;;;;;;2.70;1.10;;;17.30;59.20;;;;;;5012773;28;20766;-70
2022/04/06 08:48:07;;;;;;;4.70;1.20;;;17.30;59.20;;;;;;5018402;28;20017;-70
2022/04/06 08:50:34;;;;;;;3.20;1.13;;;17.30;59.20;;;;;;5024274;28;20486;-70
2022/04/06 08:52:59;;;;;;;3.03;1.20;;;17.40;59.20;;;;;;5033511;28;20064;-70
2022/04/06 08:55:25;;;;;;;3.38;1.10;;;17.30;59.10;;;;;;5020835;28;20470;-71
2022/04/06 08:57:51;;;;;;;3.65;1.33;;;17.30;58.90;;;;;;5012470;28;20157;-71
2022/04/06 09:00:18;;;;;;;2.53;0.98;;;17.30;59.10;;;;;;5020078;28;20391;-70
2022/04/06 09:02:44;;;;;;;3.13;1.10;;;17.30;59.00;;;;;;5017837;28;20030;-71
2022/04/06 09:05:11;;;;;;;4.57;1.23;;;17.30;59.10;;;;;;5024794;28;20044;-71
2022/04/06 09:07:38;;;;;;;5.75;1.10;;;17.30;59.20;;;;;;5024002;28;20041;-70
2022/04/06 09:10:04;;;;;;;3.25;1.10;;;17.30;59.00;;;;;;5014648;28;20025;-71
2022/04/06 09:12:30;;;;;;;3.75;1.17;;;17.30;59.00;;;;;;5015829;28;20029;-70
2022/04/06 09:15:09;;;;;;;3.45;1.00;;;17.30;59.10;;;;;;5022585;28;20034;-70
2022/04/06 09:17:48;;;;;;;3.08;1.00;;;17.30;59.10;;;;;;5029357;28;20030;-70
2022/04/06 09:20:14;;;;;;;5.25;1.02;;;17.30;59.00;;;;;;5021259;28;20402;-71
2022/04/06 09:22:40;;;;;;;4.70;1.08;;;17.30;59.00;;;;;;5020374;28;20059;-71
2022/04/06 09:25:06;;;;;;;4.60;1.42;;;17.30;58.80;;;;;;5017162;28;20060;-71
2022/04/06 09:27:32;;;;;;;2.53;0.88;;;17.30;58.80;;;;;;5020556;28;20029;-71
2022/04/06 09:29:59;;;;;;;3.05;0.95;;;17.30;59.00;;;;;;5017747;28;20505;-71
2022/04/06 09:32:24;;;;;;;2.70;1.00;;;17.30;58.80;;;;;;5021256;28;20565;-70
2022/04/06 09:34:50;;;;;;;2.67;0.80;;;17.30;58.80;;;;;;5022158;28;20029;-71
2022/04/06 09:37:23;;;;;;;4.68;1.10;;;17.30;58.90;;;;;;5015190;28;20021;-71
2022/04/06 09:39:48;;;;;;;4.05;1.00;;;17.30;59.00;;;;;;5016634;28;20041;-71
2022/04/06 09:42:21;;;;;;;4.05;1.10;;;17.30;58.80;;;;;;5018014;28;20022;-71
2022/04/06 09:47:58;;;;;;;2.47;0.98;;;17.30;59.00;;;;;;5018138;28;20426;-71
2022/04/06 09:50:26;;;;;;;4.47;1.08;;;17.30;58.80;;;;;;5021674;28;20040;-70
2022/04/06 09:52:56;;;;;;;4.60;1.00;;;17.30;58.90;;;;;;5023293;28;20030;-71
2022/04/06 09:55:22;;;;;;;4.03;1.13;;;17.40;59.00;;;;;;5015370;28;20030;-71
2022/04/06 09:57:51;;;;;;;3.08;1.00;;;17.40;58.90;;;;;;5017359;28;20104;-70
2022/04/06 10:00:28;;;;;;;2.65;0.90;;;17.40;58.90;;;;;;5025031;28;20065;-69
2022/04/06 10:03:10;;;;;;;3.70;1.00;;;17.40;58.80;;;;;;5017754;28;20022;-71
2022/04/06 10:05:38;;;;;;;4.32;1.10;;;17.40;58.80;;;;;;5026280;28;20322;-70
2022/04/06 10:08:07;;;;;;;5.70;1.17;;;17.40;58.80;;;;;;5025693;28;20453;-70
2022/04/06 10:10:33;;;;;;;3.17;0.90;;;17.30;58.80;;;;;;5012168;28;20026;-71
2022/04/06 10:12:59;;;;;;;3.22;1.02;;;17.30;58.70;;;;;;5012655;28;20045;-70
2022/04/06 10:15:25;;;;;;;2.63;0.90;;;17.40;58.80;;;;;;5016554;28;20038;-70
2022/04/06 10:17:50;;;;;;;3.67;1.08;;;17.40;58.80;;;;;;5012924;28;20071;-71
2022/04/06 10:20:35;;;;;;;3.78;1.15;;;17.30;58.80;;;;;;5025154;28;20038;-69
2022/04/06 10:23:19;;;;;;;2.88;1.15;;;17.30;58.70;;;;;;5014800;28;20026;-70
2022/04/06 10:25:55;;;;;;;3.65;1.30;;;17.30;58.80;;;;;;5023765;28;20127;-70
2022/04/06 10:28:21;;;;;;;3.90;1.20;;;17.30;58.80;;;;;;5015752;28;20038;-70
2022/04/06 10:31:13;;;;;;;4.45;1.23;;;17.30;58.80;;;;;;5013532;28;20402;-71
2022/04/06 10:33:39;;;;;;;3.65;1.10;;;17.30;58.80;;;;;;5017761;28;20410;-70
2022/04/06 10:36:17;;;;;;;3.97;1.10;;;17.30;58.80;;;;;;5037667;28;20036;-70
2022/04/06 10:39:05;;;;;;;3.78;1.20;;;17.30;58.90;;;;;;5022820;28;20038;-69
2022/04/06 10:41:34;;;;;;;4.18;1.17;;;17.30;58.90;;;;;;5028497;28;20538;-69
2022/04/06 10:44:00;;;;;;;3.03;1.00;;;17.30;58.90;;;;;;5021686;28;20069;-69
2022/04/06 10:46:34;;;;;;;1.95;0.95;;;17.30;58.90;;;;;;5024777;28;20037;-69
2022/04/06 10:49:09;;;;;;;4.47;1.25;;;17.30;59.00;;;;;;5015102;28;20525;-68
2022/04/06 10:51:38;;;;;;;3.17;1.05;;;17.30;58.90;;;;;;5020299;28;20071;-68
2022/04/06 10:54:13;;;;;;;3.88;1.10;;;17.30;59.00;;;;;;5025589;28;20026;-69
2022/04/06 10:56:50;;;;;;;3.70;1.20;;;17.30;59.00;;;;;;5022749;28;20036;-69
2022/04/06 10:59:23;;;;;;;3.10;1.00;;;17.30;58.90;;;;;;5021838;28;20022;-69
2022/04/06 11:01:49;;;;;;;3.53;1.23;;;17.20;59.00;;;;;;5017426;28;20029;-70
2022/04/06 11:04:19;;;;;;;3.53;1.40;;;17.20;58.90;;;;;;5019835;28;20028;-70
2022/04/06 11:06:59;;;;;;;3.30;1.02;;;17.30;59.00;;;;;;5018320;28;20128;-70
2022/04/06 11:12:21;;;;;;;3.72;1.20;;;17.30;58.90;;;;;;5013774;28;20122;-70
2022/04/06 11:14:50;;;;;;;3.67;1.10;;;17.30;59.00;;;;;;5019706;28;20026;-70
2022/04/06 11:17:42;;;;;;;4.07;0.95;;;17.20;59.00;;;;;;5022423;28;20034;-70
2022/04/06 11:20:28;;;;;;;2.78;1.15;;;17.30;58.90;;;;;;5026831;28;20034;-70
2022/04/06 11:22:54;;;;;;;2.92;0.90;;;17.20;59.00;;;;;;5019999;28;20398;-70
2022/04/06 11:25:24;;;;;;;4.10;1.15;;;17.20;59.00;;;;;;5016552;28;20037;-70
2022/04/06 11:27:50;;;;;;;2.65;1.00;;;17.20;59.10;;;;;;5015377;28;20468;-70
2022/04/06 11:30:16;;;;;;;3.35;1.23;;;17.30;58.90;;;;;;5023822;28;20118;-69
2022/04/06 11:32:46;;;;;;;3.10;1.00;;;17.30;59.10;;;;;;5021543;28;20042;-70
2022/04/06 11:35:12;;;;;;;3.10;1.00;;;17.20;59.00;;;;;;5025728;28;20040;-70
2022/04/06 11:37:48;;;;;;;5.80;1.30;;;17.20;59.10;;;;;;5023012;28;20029;-69
2022/04/06 11:40:15;;;;;;;2.95;1.10;;;17.20;59.00;;;;;;5014201;28;20105;-69
2022/04/06 11:42:41;;;;;;;3.10;1.10;;;17.20;59.10;;;;;;5018271;28;20177;-69
2022/04/06 11:45:07;;;;;;;3.03;0.93;;;17.20;59.00;;;;;;5025575;28;20177;-69
2022/04/06 11:47:35;;;;;;;2.70;1.20;;;17.20;59.20;;;;;;5023242;28;20044;-69
2022/04/06 11:50:10;;;;;;;3.15;1.08;;;17.20;59.00;;;;;;5021231;28;20033;-69
2022/04/06 11:52:40;;;;;;;2.67;1.08;;;17.20;59.20;;;;;;5022383;28;20146;-69
2022/04/06 11:55:07;;;;;;;3.47;1.23;;;17.20;59.10;;;;;;5022098;28;20036;-68
2022/04/06 11:57:39;;;;;;;2.78;1.20;;;17.20;59.10;;;;;;5023023;28;20029;-69
2022/04/06 12:00:06;;;;;;;2.88;1.17;;;17.20;59.20;;;;;;5031068;28;20041;-69
2022/04/06 12:02:50;;;;;;;4.93;1.45;;;17.20;59.00;;;;;;5021310;28;20040;-69
2022/04/06 12:05:17;;;;;;;5.50;1.23;;;17.20;59.30;;;;;;5027472;28;20436;-69
2022/04/06 12:07:44;;;;;;;2.42;1.05;;;17.20;59.30;;;;;;5026849;28;20059;-68
2022/04/06 12:10:09;;;;;;;2.83;1.10;;;17.20;59.20;;;;;;5024841;28;20555;-69
2022/04/06 12:12:38;;;;;;;2.05;0.90;;;17.30;59.20;;;;;;5023617;28;20042;-69
2022/04/06 12:15:08;;;;;;;5.45;1.40;;;17.20;59.20;;;;;;5030626;28;20041;-68
2022/04/06 12:17:34;;;;;;;3.67;1.42;;;17.20;59.20;;;;;;5016716;28;20044;-69
2022/04/06 12:20:00;;;;;;;4.28;1.40;;;17.20;59.30;;;;;;5027102;28;20029;-69
2022/04/06 12:22:26;;;;;;;3.28;1.30;;;17.20;59.20;;;;;;5020301;28;20029;-69
2022/04/06 12:24:54;;;;;;;3.55;1.13;;;17.30;59.20;;;;;;5022470;28;20076;-69
2022/04/06 12:27:29;;;;;;;3.20;1.25;;;17.30;59.20;;;;;;5031874;28;20072;-69
2022/04/06 12:30:09;;;;;;;5.75;1.40;;;17.30;59.20;;;;;;5021565;28;20038;-69
2022/04/06 12:32:45;;;;;;;2.33;1.20;;;17.30;59.20;;;;;;5027408;28;20042;-69
2022/04/06 12:35:21;;;;;;;3.80;1.10;;;17.30;59.10;;;;;;5016131;28;20018;-70
2022/04/06 12:37:47;;;;;;;4.63;1.13;;;17.30;59.20;;;;;;5024138;28;20303;-70
2022/04/06 12:40:20;;;;;;;3.00;1.10;;;17.30;59.20;;;;;;5017346;28;20063;-70
2022/04/06 12:42:46;;;;;;;4.95;1.05;;;17.30;59.10;;;;;;5020318;28;20050;-70
2022/04/06 12:45:13;;;;;;;3.58;1.35;;;17.40;59.20;;;;;;5018718;28;20446;-70
2022/04/06 12:47:38;;;;;;;3.97;1.00;;;17.30;59.20;;;;;;5020025;28;20034;-70
2022/04/06 12:50:14;;;;;;;4.35;1.27;;;17.30;59.20;;;;;;5023049;28;20079;-70
2022/04/06 12:52:40;;;;;;;2.72;1.00;;;17.30;59.30;;;;;;5021688;28;20030;-70
2022/04/06 12:55:07;;;;;;;2.38;0.75;;;17.30;59.30;;;;;;5022304;28;20037;-69
2022/04/06 12:57:37;;;;;;;3.13;1.00;;;17.30;59.30;;;;;;5022105;28;20018;-69
2022/04/06 13:00:04;;;;;;;3.33;1.10;;;17.30;59.30;;;;;;5022822;28;20495;-68